Flight Track Log - Related Links

Times and Time Zones

All times are in EDT time to prevent confusion due to time zone crossing. See the SWA1046 flight status page for this flight to view local times or setup timezone preferences in your user account.

Time Position Orientation Groundspeed Altitude Reporting Facility
EDT Latitude Longitude Course Direction KTS MPH feet Rate Location/Type
Wed 07:51:43 AM 42.7714 -73.8092 322° Northwest 162 186 1,300  Level Boston Center
Wed 07:52:55 AM 42.8292 -73.8697 322° Northwest 253 291 4,700 3,026 Climbing Boston Center
Wed 07:53:38 AM 42.8575 -73.9269 304° West 268 308 7,100 3,320 Climbing Boston Center
Wed 07:54:38 AM 42.8897 -74.0186 296° West 273 314 10,400 2,800 Climbing Boston Center
Wed 07:55:38 AM 42.8775 -74.1344 262° West 317 365 12,700 2,900 Climbing Boston Center
Wed 07:56:38 AM 42.7808 -74.1911 203° Southwest 314 361 16,200 2,950 Climbing Boston Center
Wed 07:57:38 AM 42.6964 -74.1322 153° Southeast 312 359 18,600 2,350 Climbing Boston Center
Wed 07:58:38 AM 42.6075 -74.0706 153° Southeast 352 405 20,900 2,450 Climbing Boston Center
Wed 07:59:38 AM 42.4900 -73.9886 153° Southeast 386 444 23,500 2,400 Climbing Boston Center
Wed 08:00:38 AM 42.3928 -73.9189 152° Southeast 421 484 25,700 1,909 Climbing Boston Center
Wed 08:01:50 AM 42.2814 -73.8403 152° Southeast 436 502 27,700 1,818 Climbing Boston Center
Wed 08:02:50 AM 42.1314 -73.8203 174° South 441 507 29,700 1,150 Climbing Boston Center
Wed 08:03:50 AM 41.9961 -73.8200 180° South 468 539 30,000 650 Climbing Boston Center
Wed 08:04:50 AM 41.8606 -73.8228 181° South 481 554 31,000 1,000 Climbing Boston Center
Wed 08:05:50 AM 41.7250 -73.8225 180° South 486 559 32,000 800 Climbing Boston Center
Wed 08:06:50 AM 41.5853 -73.8222 180° South 496 571 32,600 541 Climbing Boston Center
Wed 08:07:41 AM 41.4575 -73.8161 178° South 500 575 33,000 214 Climbing New York Center
Wed 08:08:42 AM 41.3331 -73.8078 177° South 500 575 33,000 252 Level New York Center
Wed 08:09:40 AM 41.1978 -73.7989 177° South 500 575 33,500 1,109 Climbing New York Center
Wed 08:10:41 AM 41.0625 -73.7928 178° South 494 568 35,200 1,623 Climbing New York Center
Wed 08:11:42 AM 40.9125 -73.7942 180° South 494 568 36,800 1,412 Climbing New York Center
Wed 08:12:40 AM 40.8028 -73.8553 203° Southwest 480 552 38,000 610 Climbing New York Center
Wed 08:13:40 AM 40.6797 -73.9317 205° Southwest 485 558 38,000  Level New York Center
Wed 08:14:41 AM 40.5650 -74.0164 209° Southwest 485 558 38,000  Level New York Center
Wed 08:15:42 AM 40.4461 -74.0981 208° Southwest 485 558 38,000  Level New York Center
Wed 08:17:39 AM 40.2164 -74.2550 208° Southwest 498 573 38,000  Level Washington Center
Wed 08:18:40 AM 40.0986 -74.3383 208° Southwest 491 565 38,000  Level Washington Center
Wed 08:19:38 AM 39.9786 -74.4192 207° Southwest 491 565 38,000  Level Washington Center
Wed 08:20:38 AM 39.8606 -74.4994 208° Southwest 491 565 38,000  Level Washington Center
Wed 08:21:40 AM 39.7406 -74.5822 208° Southwest 486 559 38,000  Level Washington Center
Wed 08:22:40 AM 39.6225 -74.6622 208° Southwest 486 559 38,000  Level Washington Center
Wed 08:23:38 AM 39.4939 -74.7497 208° Southwest 486 559 38,000  Level Washington Center
Wed 08:24:39 AM 39.3736 -74.8344 209° Southwest 486 559 38,000  Level Washington Center
Wed 08:25:39 AM 39.2553 -74.9108 207° Southwest 486 559 38,000  Level Washington Center
Wed 08:26:40 AM 39.1369 -74.9894 207° Southwest 486 559 38,000  Level Washington Center
Wed 08:27:40 AM 39.0206 -75.0706 208° Southwest 481 554 38,000  Level Washington Center
Wed 08:28:38 AM 38.9083 -75.1594 212° Southwest 481 554 38,000  Level Washington Center
Wed 08:29:38 AM 38.8483 -75.3039 242° Southwest 444 511 38,000  Level Washington Center
Wed 08:30:40 AM 38.8131 -75.4531 253° West 438 504 38,000  Level Washington Center
Wed 08:31:37 AM 38.7547 -75.5917 242° Southwest 438 504 38,000  Level Washington Center
Wed 08:32:38 AM 38.6361 -75.6503 201° Southwest 425 489 38,000  Level Washington Center
Wed 08:33:39 AM 38.5047 -75.5944 162° South 412 474 38,000  Level Washington Center
Wed 08:34:37 AM 38.3836 -75.5333 158° South 438 504 38,000  Level Washington Center
Wed 08:35:38 AM 38.2650 -75.5389 182° South 455 524 38,000  Level Washington Center
Wed 08:36:39 AM 38.1397 -75.5969 200° South 460 529 38,000  Level Washington Center
Wed 08:37:40 AM 38.0042 -75.6631 201° Southwest 466 536 38,000  Level Washington Center
Wed 08:38:40 AM 37.8789 -75.7181 199° South 479 551 38,000  Level Washington Center
Wed 08:39:38 AM 37.7517 -75.7678 197° South 479 551 38,000  Level Washington Center
Wed 08:40:39 AM 37.6264 -75.8253 200° South 484 557 38,000  Level Washington Center
Wed 08:41:38 AM 37.5033 -75.8772 199° South 484 557 38,000  Level Washington Center
Wed 08:42:38 AM 37.3842 -75.9447 204° Southwest 484 557 38,000  Level Washington Center
Wed 08:43:39 AM 37.2611 -76.0094 203° Southwest 479 551 38,000  Level Washington Center
Wed 08:44:40 AM 37.1397 -76.0739 203° Southwest 474 545 38,000  Level Washington Center
Wed 08:45:40 AM 37.0186 -76.1381 203° Southwest 474 545 38,000  Level Washington Center
Wed 08:46:38 AM 36.9056 -76.1919 201° Southwest 481 554 38,000  Level Washington Center
Wed 08:47:39 AM 36.7883 -76.2661 207° Southwest 481 554 38,000  Level Washington Center
Wed 08:48:40 AM 36.6689 -76.3558 211° Southwest 475 547 38,000  Level Washington Center
Wed 08:49:38 AM 36.5558 -76.4322 208° Southwest 469 540 38,000  Level Washington Center
Wed 08:50:38 AM 36.4425 -76.5086 208° Southwest 469 540 38,000  Level Washington Center
Wed 08:51:38 AM 36.3272 -76.5844 208° Southwest 463 533 38,000  Level Washington Center
Wed 08:52:39 AM 36.2161 -76.6578 208° Southwest 463 533 38,000  Level Washington Center
Wed 08:53:40 AM 36.1047 -76.7283 207° Southwest 458 527 38,000  Level Washington Center
Wed 08:54:40 AM 35.9875 -76.7781 199° South 453 521 38,000  Level Washington Center
Wed 08:55:38 AM 35.8828 -76.8225 199° South 443 510 38,000  Level Washington Center
Wed 08:56:39 AM 35.7653 -76.8719 199° South 449 517 38,000  Level Washington Center
Wed 08:57:39 AM 35.6500 -76.9186 198° South 444 511 38,000  Level Washington Center
Wed 08:58:40 AM 35.5389 -76.9706 201° Southwest 444 511 38,000  Level Washington Center
Wed 08:59:37 AM 35.4172 -77.0194 198° South 449 517 38,000  Level Washington Center
Wed 09:00:38 AM 35.2997 -77.0681 199° South 449 517 38,000  Level Washington Center
Wed 09:01:39 AM 35.1825 -77.1169 199° South 454 522 38,000  Level Washington Center
Wed 09:02:40 AM 35.0628 -77.1653 198° South 448 516 38,000  Level Washington Center
Wed 09:03:38 AM 34.9494 -77.2139 199° South 443 510 38,000  Level Washington Center
Wed 09:04:39 AM 34.8319 -77.2619 199° South 448 516 38,000  Level Washington Center
Wed 09:05:39 AM 34.7061 -77.3175 200° South 448 516 38,000  Level Washington Center
Wed 09:06:40 AM 34.5906 -77.3656 199° South 448 516 38,000  Level Washington Center
Wed 09:07:38 AM 34.4731 -77.4136 199° South 448 516 38,000  Level Washington Center
Wed 09:08:39 AM 34.3533 -77.4611 198° South 448 516 38,000  Level Washington Center
Wed 09:12:04 AM 33.9617 -77.6147 198° South 430 495 38,000  Level Jacksonville Center
Wed 09:13:04 AM 33.8450 -77.6667 200° South 435 501 38,000  Level Jacksonville Center
Wed 09:14:04 AM 33.7300 -77.7111 198° South 430 495 38,000  Level Jacksonville Center
Wed 09:15:04 AM 33.5986 -77.7661 199° South 437 503 38,000  Level Jacksonville Center
Wed 09:16:04 AM 33.4797 -77.8128 198° South 437 503 38,000  Level Jacksonville Center
Wed 09:17:04 AM 33.3606 -77.8594 198° South 447 514 38,000  Level Jacksonville Center
Wed 09:18:04 AM 33.2433 -77.9083 199° South 456 525 38,000  Level Jacksonville Center
Wed 09:19:04 AM 33.1261 -77.9519 197° South 456 525 38,000  Level Jacksonville Center
Wed 09:20:04 AM 33.0069 -78.0008 199° South 445 512 38,000  Level Jacksonville Center
Wed 09:21:04 AM 32.8900 -78.0467 198° South 451 519 38,000  Level Jacksonville Center
Wed 09:22:04 AM 32.7728 -78.0925 198° South 440 506 38,000  Level Jacksonville Center
Wed 09:23:04 AM 32.6575 -78.1356 197° South 432 497 38,000  Level Jacksonville Center
Wed 09:24:04 AM 32.5444 -78.1833 200° South 432 497 38,000  Level Jacksonville Center
Wed 09:25:04 AM 32.4292 -78.2286 198° South 434 499 38,000  Level Jacksonville Center
Wed 09:26:04 AM 32.3139 -78.2739 198° South 423 487 38,000  Level Jacksonville Center
Wed 09:27:04 AM 32.2008 -78.3164 198° South 423 487 38,000  Level Jacksonville Center
Wed 09:28:04 AM 32.0856 -78.3614 198° South 423 487 38,000  Level Jacksonville Center
Wed 09:29:04 AM 31.9722 -78.4039 198° South 418 481 38,000  Level Jacksonville Center
Wed 09:30:04 AM 31.8592 -78.4508 199° South 424 488 38,000  Level Jacksonville Center
Wed 09:31:04 AM 31.7436 -78.4906 196° South 433 498 38,000  Level Jacksonville Center
Wed 09:32:04 AM 31.6322 -78.5325 198° South 427 491 38,000  Level Jacksonville Center
Wed 09:33:04 AM 31.5317 -78.5786 201° Southwest 420 483 38,000  Level Jacksonville Center
Wed 09:34:04 AM 31.4181 -78.6181 197° South 420 483 38,000  Level Jacksonville Center
Wed 09:35:04 AM 31.3089 -78.6619 199° South 420 483 38,000  Level Jacksonville Center
Wed 09:36:04 AM 31.1872 -78.7039 196° South 419 482 38,000  Level Jacksonville Center
Wed 09:37:04 AM 31.0778 -78.7425 197° South 414 476 38,000  Level Jacksonville Center
Wed 09:38:04 AM 30.9667 -78.7911 201° Southwest 421 484 38,000  Level Jacksonville Center
Wed 09:39:04 AM 30.8575 -78.8344 199° South 421 484 38,000  Level Jacksonville Center
Wed 09:40:04 AM 30.7397 -78.8758 197° South 432 497 38,000  Level Jacksonville Center
Wed 09:41:04 AM 30.6325 -78.9189 199° South 429 494 38,000  Level Jacksonville Center
Wed 09:41:40 AM 30.5653 -78.9414 196° South 431 496 38,000  Level Miami Center
Wed 09:42:40 AM 30.4542 -78.9825 198° South 426 490 38,000  Level Miami Center
Wed 09:43:40 AM 30.3431 -79.0283 200° South 431 496 38,000  Level Miami Center
Wed 09:44:40 AM 30.2361 -79.0764 201° Southwest 426 490 38,000  Level Miami Center
Wed 09:45:40 AM 30.1228 -79.1244 200° South 426 490 38,000  Level Miami Center
Wed 09:46:40 AM 30.0114 -79.1725 200° South 432 497 38,000  Level Miami Center
Wed 09:47:40 AM 29.9189 -79.2206 204° Southwest 418 481 38,000  Level Miami Center
Wed 09:48:40 AM 29.8117 -79.2708 202° Southwest 418 481 38,000  Level Miami Center
Wed 09:49:40 AM 29.7006 -79.3114 198° South 424 488 38,000  Level Miami Center
Wed 09:50:40 AM 29.5933 -79.3592 201° Southwest 419 482 38,000  Level Miami Center
Wed 09:51:40 AM 29.4839 -79.4067 201° Southwest 419 482 38,000 -200 Level Miami Center
Wed 09:52:40 AM 29.3789 -79.4542 202° Southwest 414 476 37,600 -1,700 Descending Miami Center
Wed 09:53:40 AM 29.2675 -79.4992 199° South 414 476 34,600 -2,900 Descending Miami Center
Wed 09:54:40 AM 29.1561 -79.5464 200° South 422 486 31,800 -3,000 Descending Miami Center
Wed 09:55:40 AM 29.0731 -79.6322 222° Southwest 412 474 28,600 -3,100 Descending Miami Center
Wed 09:56:40 AM 29.0372 -79.7619 252° West 399 459 25,600 -2,650 Descending Miami Center
Wed 09:57:40 AM 29.0011 -79.8867 252° West 405 466 23,300 -2,250 Descending Miami Center
Wed 09:58:40 AM 28.9611 -80.0042 249° West 405 466 21,100 -2,150 Descending Miami Center
Wed 09:59:40 AM 28.9272 -80.1169 251° West 399 459 19,000 -2,103 Descending Miami Center
Wed 10:01:54 AM 28.8500 -80.3667 251° West 349 402 14,300 -1,500 Descending Orlando TRACON
Wed 10:03:00 AM 28.8333 -80.4833 261° West 334 384 14,000 -793 Descending Orlando TRACON
Wed 10:03:55 AM 28.8167 -80.5667 257° West 333 383 12,700 -1,686 Descending Orlando TRACON
Wed 10:05:01 AM 28.8000 -80.6833 261° West 330 380 10,600 -1,286 Descending Orlando TRACON
Wed 10:06:01 AM 28.8000 -80.7833 270° West 287 330 10,000 -300 Descending Orlando TRACON
Wed 10:07:01 AM 28.8000 -80.8667 270° West 286 329 10,000 -150 Level Orlando TRACON
Wed 10:08:01 AM 28.8000 -80.9500 270° West 261 300 9,700 -522 Descending Orlando TRACON
Wed 10:08:56 AM 28.8167 -81.0167 286° West 247 284 9,000 -347 Descending Orlando TRACON
Wed 10:10:02 AM 28.7500 -81.0667 213° Southwest 232 267 9,000  Level Orlando TRACON
Wed 10:11:02 AM 28.7000 -81.1000 210° Southwest 241 277 9,000  Level Orlando TRACON
Wed 10:12:02 AM 28.6333 -81.1333 204° Southwest 244 281 9,000  Level Orlando TRACON
Wed 10:12:56 AM 28.5833 -81.1667 210° Southwest 248 285 9,000 -211 Level Orlando TRACON
Wed 10:13:56 AM 28.5167 -81.1833 192° South 247 284 8,600 -744 Descending Orlando TRACON
Wed 10:14:57 AM 28.4500 -81.1833 180° South 236 272 7,500 -1,289 Descending Orlando TRACON
Wed 10:15:57 AM 28.3667 -81.1833 180° South 250 288 6,000 -1,286 Descending Orlando TRACON
Wed 10:17:03 AM 28.3000 -81.2000 192° South 227 261 4,800 -1,100 Descending Orlando TRACON
Wed 10:17:57 AM 28.3000 -81.2500 270° West 184 212 3,800 -1,368 Descending Orlando TRACON
Wed 10:18:57 AM 28.3333 -81.3000 307° West 173 199 2,200 -1,600 Descending Orlando TRACON

Login

Don't have an account? Register now (free) for customized features, flight alerts, and more!